Time;durP1;ratioP1;P1;durP2;ratioP2;P2;SDS_P1;SDS_P2;PMS_P1;PMS_P2;Temp;Humidity;BMP_temperature;BMP_pressure;BME280_temperature;BME280_humidity;BME280_pressure;Samples;Min_cycle;Max_cycle;Signal;HPM_P1;HPM_P2
2021/12/04 00:00:58;;;;;;;133.18;119.50;;;5.40;99.60;;;;;;5017903;28;20020;-78
2021/12/04 00:03:26;;;;;;;134.23;120.20;;;5.40;99.60;;;;;;5050358;28;20056;-77
2021/12/04 00:05:55;;;;;;;136.13;121.93;;;5.40;99.60;;;;;;5033792;28;20054;-78
2021/12/04 00:08:25;;;;;;;135.65;121.75;;;5.40;99.60;;;;;;5034029;28;20054;-77
2021/12/04 00:10:52;;;;;;;134.57;120.90;;;5.40;99.60;;;;;;5033935;28;20057;-77
2021/12/04 00:13:19;;;;;;;;;;;5.40;99.50;;;;;;5035644;28;20054;-78
2021/12/04 00:15:46;;;;;;;133.93;119.80;;;5.40;99.50;;;;;;5050506;28;20318;-78
2021/12/04 00:18:14;;;;;;;134.60;120.60;;;5.40;99.50;;;;;;5032878;28;20087;-77
2021/12/04 00:20:41;;;;;;;134.95;121.22;;;5.40;99.50;;;;;;5035057;28;20046;-77
2021/12/04 00:23:08;;;;;;;132.95;119.22;;;5.40;99.60;;;;;;5033740;28;20042;-77
2021/12/04 00:25:37;;;;;;;137.77;123.50;;;5.40;99.60;;;;;;5033424;28;20050;-77
2021/12/04 00:28:05;;;;;;;137.90;123.57;;;5.40;99.50;;;;;;5033581;28;20197;-77
2021/12/04 00:30:32;;;;;;;134.77;120.80;;;5.40;99.50;;;;;;5050172;28;20595;-78
2021/12/04 00:33:02;;;;;;;136.82;122.70;;;5.40;99.60;;;;;;5033475;28;20562;-77
2021/12/04 00:35:43;;;;;;;134.60;120.50;;;5.40;99.60;;;;;;5033146;28;20538;-78
2021/12/04 00:49:09;;;;;;;133.02;119.00;;;5.30;99.60;;;;;;5016808;28;20054;-77
2021/12/04 00:51:40;;;;;;;135.88;121.38;;;5.30;99.70;;;;;;5032764;28;20049;-77
2021/12/04 00:54:09;;;;;;;136.65;122.18;;;5.30;99.70;;;;;;5034669;28;20050;-77
2021/12/04 00:56:37;;;;;;;134.20;119.68;;;5.30;99.70;;;;;;5032967;28;20141;-77
2021/12/04 00:59:05;;;;;;;135.02;120.60;;;5.40;99.70;;;;;;5032441;28;20050;-77
2021/12/04 01:01:33;;;;;;;133.75;119.35;;;5.30;99.70;;;;;;5016440;28;20846;-77
2021/12/04 01:04:00;;;;;;;134.65;120.13;;;5.30;99.70;;;;;;5031557;28;20504;-77
2021/12/04 01:06:27;;;;;;;;;;;5.30;99.70;;;;;;5033242;28;20097;-78
2021/12/04 01:08:56;;;;;;;130.70;116.47;;;5.30;99.80;;;;;;5033392;28;20832;-78
2021/12/04 01:11:23;;;;;;;132.02;117.82;;;5.30;99.80;;;;;;5032959;28;20136;-78
2021/12/04 01:13:50;;;;;;;131.18;117.22;;;5.30;99.80;;;;;;5033141;28;20058;-77
2021/12/04 01:16:17;;;;;;;133.95;120.20;;;5.30;99.80;;;;;;5032405;28;20054;-77
2021/12/04 01:18:44;;;;;;;132.90;118.90;;;5.30;99.80;;;;;;5016419;28;20137;-77
2021/12/04 01:21:11;;;;;;;131.65;118.05;;;5.30;99.80;;;;;;5033116;28;20073;-77
2021/12/04 01:23:39;;;;;;;130.38;116.85;;;5.30;99.80;;;;;;5034298;28;20155;-77
2021/12/04 01:26:07;;;;;;;131.38;117.75;;;5.30;99.80;;;;;;5032471;28;20603;-77
2021/12/04 01:28:34;;;;;;;130.02;116.65;;;5.30;99.80;;;;;;5033930;28;20113;-78
2021/12/04 01:31:02;;;;;;;131.70;118.43;;;5.30;99.80;;;;;;5032668;28;20583;-78
2021/12/04 01:33:29;;;;;;;128.07;114.97;;;5.30;99.80;;;;;;5032695;28;20060;-78
2021/12/04 01:35:56;;;;;;;129.68;116.88;;;5.30;99.70;;;;;;5015716;28;20050;-78
2021/12/04 01:38:23;;;;;;;127.45;114.70;;;5.30;99.80;;;;;;5032763;28;20595;-78
2021/12/04 01:40:50;;;;;;;;;;;5.30;99.70;;;;;;5033070;28;20480;-78
2021/12/04 01:43:20;;;;;;;123.07;110.47;;;5.30;99.70;;;;;;5049574;28;19960;-78
2021/12/04 01:45:47;;;;;;;124.03;111.63;;;5.30;99.80;;;;;;5032334;28;20050;-78
2021/12/04 01:48:14;;;;;;;124.15;111.72;;;5.20;99.70;;;;;;5032541;28;20125;-78
2021/12/04 01:50:41;;;;;;;123.82;111.47;;;5.30;99.80;;;;;;5032707;28;20061;-77
2021/12/04 01:53:08;;;;;;;122.30;110.00;;;5.30;99.70;;;;;;5032278;28;20050;-77
2021/12/04 01:55:36;;;;;;;;;;;5.30;99.70;;;;;;5016262;28;20089;-77
2021/12/04 01:58:05;;;;;;;124.63;112.10;;;5.30;99.60;;;;;;5033036;28;20389;-78
2021/12/04 02:00:38;;;;;;;124.03;111.70;;;5.30;99.60;;;;;;5032425;28;20132;-77
2021/12/04 02:03:08;;;;;;;121.03;108.90;;;5.30;99.50;;;;;;5032635;28;20053;-77
2021/12/04 02:05:37;;;;;;;123.78;111.47;;;5.30;99.40;;;;;;5032196;28;20099;-77
2021/12/04 02:08:06;;;;;;;122.13;110.03;;;5.30;99.50;;;;;;5032320;28;20050;-77
2021/12/04 02:10:33;;;;;;;123.65;111.45;;;5.20;99.60;;;;;;5032245;28;20046;-77
2021/12/04 02:13:51;;;;;;;118.63;106.70;;;5.20;99.50;;;;;;5034687;28;20050;-78
2021/12/04 02:16:22;;;;;;;123.45;111.13;;;5.30;99.60;;;;;;5031793;28;20138;-77
2021/12/04 02:18:50;;;;;;;124.95;112.55;;;5.20;99.60;;;;;;5032046;28;20066;-77
2021/12/04 02:21:18;;;;;;;125.50;113.07;;;5.20;99.60;;;;;;5031635;28;20053;-77
2021/12/04 02:23:45;;;;;;;125.75;113.30;;;5.30;99.60;;;;;;5031859;28;20060;-77
2021/12/04 02:26:13;;;;;;;125.70;113.40;;;5.30;99.50;;;;;;5031046;28;20081;-77
2021/12/04 02:28:43;;;;;;;125.38;113.00;;;5.30;99.50;;;;;;5032108;28;20054;-77
2021/12/04 02:31:10;;;;;;;125.28;113.07;;;5.20;99.60;;;;;;5031881;28;20097;-77
2021/12/04 02:33:37;;;;;;;127.20;114.72;;;5.30;99.60;;;;;;5032091;28;20046;-77
2021/12/04 02:36:06;;;;;;;;;;;5.20;99.60;;;;;;5032123;28;20104;-77
2021/12/04 02:38:35;;;;;;;122.90;110.70;;;5.30;99.60;;;;;;5032389;28;20391;-77
2021/12/04 02:41:03;;;;;;;123.47;111.43;;;5.30;99.60;;;;;;5033267;28;20050;-77
2021/12/04 02:43:33;;;;;;;124.50;112.38;;;5.20;99.60;;;;;;5036816;28;20061;-77
2021/12/04 02:46:01;;;;;;;124.05;111.82;;;5.30;99.50;;;;;;5036547;28;20081;-77
2021/12/04 02:48:28;;;;;;;124.70;112.60;;;5.30;99.50;;;;;;5036755;28;20068;-78
2021/12/04 02:50:55;;;;;;;124.22;112.13;;;5.30;99.60;;;;;;5036215;28;20108;-77
2021/12/04 02:53:22;;;;;;;123.55;111.53;;;5.30;99.50;;;;;;5035183;28;20065;-77
2021/12/04 02:55:53;;;;;;;124.28;112.18;;;5.30;99.50;;;;;;5034716;28;20041;-77
2021/12/04 02:58:20;;;;;;;124.85;112.55;;;5.30;99.50;;;;;;5036458;28;20060;-77
2021/12/04 03:00:50;;;;;;;124.55;112.60;;;5.30;99.50;;;;;;5035197;28;20054;-77
2021/12/04 03:03:19;;;;;;;124.10;112.03;;;5.30;99.50;;;;;;5018451;28;20062;-77
2021/12/04 03:05:49;;;;;;;122.43;110.63;;;5.30;99.50;;;;;;5018310;28;20049;-77
2021/12/04 03:08:18;;;;;;;123.20;111.22;;;5.30;99.50;;;;;;5034996;28;20050;-77
2021/12/04 03:10:46;;;;;;;121.20;109.30;;;5.30;99.40;;;;;;5034570;28;20536;-77
2021/12/04 03:13:17;;;;;;;121.22;109.53;;;5.30;99.40;;;;;;5034891;28;20112;-77
2021/12/04 03:15:47;;;;;;;122.80;111.00;;;5.30;99.40;;;;;;5018288;28;20492;-77
2021/12/04 03:18:14;;;;;;;121.18;109.38;;;5.30;99.40;;;;;;5034861;28;20058;-78
2021/12/04 03:20:43;;;;;;;;;;;5.30;99.40;;;;;;5035064;28;20049;-77
2021/12/04 03:23:15;;;;;;;121.25;109.25;;;5.30;99.40;;;;;;5051563;28;19960;-78
2021/12/04 03:25:45;;;;;;;120.45;108.63;;;5.30;99.40;;;;;;5034568;28;20050;-77
2021/12/04 03:28:14;;;;;;;119.85;108.05;;;5.30;99.40;;;;;;5036112;28;20054;-77
2021/12/04 03:30:47;;;;;;;119.32;107.53;;;5.20;99.50;;;;;;5034633;28;20136;-77
2021/12/04 03:41:27;;;;;;;120.82;108.93;;;5.30;99.50;;;;;;5034600;28;20069;-77
2021/12/04 03:47:25;;;;;;;121.93;109.88;;;5.30;99.50;;;;;;5034637;28;20104;-77
2021/12/04 03:49:52;;;;;;;120.47;108.68;;;5.30;99.50;;;;;;5034345;28;20137;-77
2021/12/04 03:52:19;;;;;;;122.75;110.65;;;5.30;99.40;;;;;;5034060;28;20077;-77
2021/12/04 03:54:46;;;;;;;;;;;5.30;99.40;;;;;;5034169;28;20539;-78
2021/12/04 03:57:14;;;;;;;120.85;108.93;;;5.20;99.40;;;;;;5051080;28;20024;-77
2021/12/04 03:59:45;;;;;;;119.55;107.65;;;5.20;99.40;;;;;;5034283;28;20053;-77
2021/12/04 04:02:13;;;;;;;121.07;109.07;;;5.20;99.50;;;;;;5035742;28;20139;-77
2021/12/04 04:04:42;;;;;;;122.32;110.35;;;5.20;99.50;;;;;;5017238;28;20054;-78
2021/12/04 04:07:09;;;;;;;121.68;109.75;;;5.20;99.50;;;;;;5034059;28;20060;-77
2021/12/04 04:09:37;;;;;;;121.80;109.80;;;5.20;99.50;;;;;;5033941;28;20506;-77
2021/12/04 04:12:05;;;;;;;121.50;109.60;;;5.20;99.50;;;;;;5033865;28;20551;-77
2021/12/04 04:14:32;;;;;;;120.90;109.03;;;5.20;99.50;;;;;;5033836;28;20137;-77
2021/12/04 04:16:59;;;;;;;121.70;109.20;;;5.20;99.50;;;;;;5033750;28;20049;-78
2021/12/04 04:19:27;;;;;;;120.68;108.95;;;5.20;99.60;;;;;;5033760;28;20411;-77
2021/12/04 04:21:57;;;;;;;119.57;107.88;;;5.20;99.60;;;;;;5033598;28;20050;-77
2021/12/04 04:24:26;;;;;;;121.07;109.18;;;5.20;99.60;;;;;;5035192;28;20548;-77
2021/12/04 04:26:54;;;;;;;122.40;110.50;;;5.20;99.60;;;;;;5017008;28;20128;-77
2021/12/04 04:29:21;;;;;;;121.13;109.38;;;5.20;99.80;;;;;;5033622;28;20582;-77
2021/12/04 04:31:49;;;;;;;121.63;109.55;;;5.20;99.60;;;;;;5034655;28;20054;-77
2021/12/04 04:34:22;;;;;;;121.32;109.30;;;5.20;99.60;;;;;;5033464;28;20053;-77
2021/12/04 04:37:03;;;;;;;119.38;107.72;;;5.20;99.60;;;;;;5033302;28;20062;-77
2021/12/04 04:40:02;;;;;;;119.28;107.47;;;5.20;99.60;;;;;;5035144;28;20049;-77
2021/12/04 04:59:17;;;;;;;118.95;107.50;;;5.20;99.60;;;;;;5033401;28;20054;-77
2021/12/04 05:02:19;;;;;;;119.45;107.85;;;5.20;99.60;;;;;;5033229;28;20112;-78
2021/12/04 05:13:22;;;;;;;118.70;107.03;;;5.20;99.60;;;;;;5005469;28;20519;-77
2021/12/04 05:15:58;;;;;;;119.25;107.68;;;5.20;99.60;;;;;;5032495;28;20105;-77
2021/12/04 05:18:35;;;;;;;119.03;107.43;;;5.20;99.70;;;;;;5034454;28;20128;-77
2021/12/04 05:21:05;;;;;;;120.07;108.45;;;5.20;99.60;;;;;;5032876;28;20069;-78
2021/12/04 05:23:33;;;;;;;119.20;107.80;;;5.30;99.70;;;;;;5033168;28;20057;-79
2021/12/04 05:26:01;;;;;;;120.57;108.97;;;5.30;99.60;;;;;;5032428;28;20060;-78
2021/12/04 05:28:29;;;;;;;119.30;107.93;;;5.30;99.70;;;;;;5016322;28;20593;-77
2021/12/04 05:30:57;;;;;;;121.00;109.60;;;5.30;99.70;;;;;;5016292;28;20093;-77
2021/12/04 05:33:25;;;;;;;120.93;109.28;;;5.30;99.60;;;;;;5032960;28;20057;-77
2021/12/04 05:35:52;;;;;;;120.82;108.93;;;5.30;99.70;;;;;;5032296;28;20048;-77
2021/12/04 05:38:20;;;;;;;119.18;107.57;;;5.30;99.60;;;;;;5032621;28;20054;-77
2021/12/04 05:40:48;;;;;;;121.68;109.82;;;5.30;99.60;;;;;;5032631;28;20081;-77
2021/12/04 05:43:16;;;;;;;120.20;108.70;;;5.30;99.60;;;;;;5032581;28;20057;-77
2021/12/04 05:45:48;;;;;;;119.57;108.03;;;5.30;99.60;;;;;;5032352;28;20081;-77
2021/12/04 05:48:19;;;;;;;120.30;108.75;;;5.30;99.60;;;;;;5032707;28;20054;-77
2021/12/04 05:51:16;;;;;;;120.65;109.05;;;5.30;99.60;;;;;;5033932;28;20058;-77
2021/12/04 05:53:55;;;;;;;121.05;109.25;;;5.30;99.60;;;;;;5032728;28;20060;-77
2021/12/04 05:56:22;;;;;;;119.97;108.38;;;5.40;99.60;;;;;;5032218;28;20049;-77
2021/12/04 05:58:50;;;;;;;120.72;108.93;;;5.40;99.60;;;;;;5033934;28;20140;-77
2021/12/04 06:01:20;;;;;;;120.63;109.03;;;5.40;99.60;;;;;;5032222;28;20058;-77
2021/12/04 06:03:48;;;;;;;120.60;108.78;;;5.40;99.60;;;;;;5016180;28;20060;-77
2021/12/04 06:06:17;;;;;;;121.00;109.30;;;5.40;99.60;;;;;;5032120;28;20520;-77
2021/12/04 06:08:44;;;;;;;120.38;108.82;;;5.30;99.50;;;;;;5032215;28;20121;-77
2021/12/04 06:11:11;;;;;;;119.90;108.30;;;5.30;99.50;;;;;;5032268;28;20050;-77
2021/12/04 06:13:38;;;;;;;120.57;108.72;;;5.30;99.50;;;;;;5032585;28;20385;-77
2021/12/04 06:16:06;;;;;;;120.15;108.38;;;5.30;99.50;;;;;;5034669;28;20054;-77
2021/12/04 06:18:34;;;;;;;120.60;108.80;;;5.40;99.50;;;;;;5035476;28;20054;-77
2021/12/04 06:23:46;;;;;;;119.72;107.97;;;5.40;99.50;;;;;;5015687;28;20516;-77
2021/12/04 06:26:14;;;;;;;119.55;107.95;;;5.40;99.50;;;;;;5031916;28;20133;-77
2021/12/04 06:28:41;;;;;;;120.28;108.57;;;5.40;99.50;;;;;;5016007;28;20054;-77
2021/12/04 06:31:09;;;;;;;120.47;108.88;;;5.40;99.50;;;;;;5015540;28;20055;-77
2021/12/04 06:33:38;;;;;;;121.28;109.50;;;5.40;99.50;;;;;;5032410;28;20058;-77
2021/12/04 06:36:06;;;;;;;122.88;110.93;;;5.40;99.50;;;;;;5015513;28;20061;-77
2021/12/04 06:38:34;;;;;;;121.80;110.00;;;5.40;99.50;;;;;;5015525;28;20061;-77
2021/12/04 06:41:02;;;;;;;121.50;109.70;;;5.40;99.50;;;;;;5015574;28;20109;-77
2021/12/04 06:43:29;;;;;;;121.53;109.68;;;5.40;99.50;;;;;;5015561;28;20142;-77
2021/12/04 06:45:59;;;;;;;120.97;109.18;;;5.40;99.50;;;;;;5015340;28;20877;-77
2021/12/04 06:48:32;;;;;;;130.68;117.75;;;5.40;99.50;;;;;;5015237;28;20050;-77
2021/12/04 06:51:05;;;;;;;123.25;111.22;;;5.30;99.50;;;;;;5015003;28;20053;-77
2021/12/04 06:53:37;;;;;;;120.45;108.63;;;5.40;99.50;;;;;;5016652;28;20061;-77
2021/12/04 07:00:17;;;;;;;121.63;109.25;;;5.40;99.50;;;;;;5017545;28;20034;-77
2021/12/04 07:02:44;;;;;;;118.60;106.93;;;5.40;99.50;;;;;;5031916;28;20058;-77
2021/12/04 07:05:12;;;;;;;122.82;110.78;;;5.40;99.50;;;;;;5015258;28;20129;-78
2021/12/04 07:07:40;;;;;;;121.50;109.57;;;5.40;99.50;;;;;;5014853;28;20141;-77
2021/12/04 07:10:08;;;;;;;121.22;109.22;;;5.40;99.50;;;;;;5031440;28;20113;-77
2021/12/04 07:12:35;;;;;;;120.38;108.43;;;5.40;99.50;;;;;;5014679;28;20530;-77
2021/12/04 07:15:02;;;;;;;120.15;108.35;;;5.30;99.50;;;;;;5014830;28;20100;-77
2021/12/04 07:17:29;;;;;;;121.35;109.40;;;5.30;99.50;;;;;;5031277;28;20525;-77
2021/12/04 07:19:56;;;;;;;121.95;109.90;;;5.30;99.50;;;;;;5013982;28;20046;-77
2021/12/04 07:22:23;;;;;;;120.75;108.65;;;5.40;99.60;;;;;;5015329;28;20077;-77
2021/12/04 07:24:51;;;;;;;121.10;108.90;;;5.40;99.60;;;;;;5030638;28;20055;-77
2021/12/04 07:27:18;;;;;;;122.80;110.70;;;5.40;99.60;;;;;;5013270;28;20051;-77
2021/12/04 07:29:45;;;;;;;132.30;118.90;;;5.40;99.50;;;;;;5015488;28;20137;-77
2021/12/04 07:32:12;;;;;;;127.05;114.30;;;5.40;99.60;;;;;;5031132;28;20144;-78
2021/12/04 07:34:39;;;;;;;123.63;111.72;;;5.40;99.50;;;;;;5016188;28;20073;-82
2021/12/04 07:37:07;;;;;;;119.30;107.70;;;5.40;99.60;;;;;;5014962;28;20534;-82
2021/12/04 07:39:34;;;;;;;122.38;110.68;;;5.40;99.60;;;;;;5032323;28;20061;-82
2021/12/04 07:42:02;;;;;;;118.57;106.97;;;5.30;99.50;;;;;;4978770;28;20045;-81
2021/12/04 07:44:30;;;;;;;119.68;108.20;;;5.40;99.60;;;;;;5035218;28;20489;-82
2021/12/04 07:46:57;;;;;;;117.53;106.15;;;5.40;99.60;;;;;;5032054;28;20422;-83
2021/12/04 07:49:24;;;;;;;116.88;105.63;;;5.30;99.50;;;;;;5016856;28;20050;-84
2021/12/04 07:51:52;;;;;;;117.35;106.15;;;5.40;99.50;;;;;;5016787;28;20108;-83
2021/12/04 07:54:19;;;;;;;117.53;106.32;;;5.30;99.50;;;;;;5016463;28;20054;-83
2021/12/04 07:56:47;;;;;;;118.45;107.15;;;5.40;99.60;;;;;;5030905;28;20121;-83
2021/12/04 07:59:15;;;;;;;118.20;106.63;;;5.30;99.50;;;;;;5033160;28;20148;-83
2021/12/04 08:01:42;;;;;;;120.03;108.30;;;5.30;99.50;;;;;;5033295;28;20132;-82
2021/12/04 08:04:09;;;;;;;116.75;105.65;;;5.30;99.50;;;;;;5033077;28;20064;-81
2021/12/04 08:06:36;;;;;;;118.07;106.85;;;5.30;99.50;;;;;;5025894;28;20176;-81
2021/12/04 08:09:04;;;;;;;116.10;105.10;;;5.30;99.50;;;;;;5067195;28;20112;-82
2021/12/04 08:11:32;;;;;;;117.43;106.20;;;5.40;99.60;;;;;;5067312;28;20066;-82
2021/12/04 08:13:59;;;;;;;117.75;106.55;;;5.30;99.50;;;;;;5017568;28;20105;-82
2021/12/04 08:16:28;;;;;;;118.55;107.25;;;5.30;99.50;;;;;;5033092;28;20129;-82
2021/12/04 08:18:55;;;;;;;118.60;107.30;;;5.30;99.50;;;;;;5066114;28;20143;-81
2021/12/04 08:21:23;;;;;;;120.75;109.05;;;5.30;99.50;;;;;;5013682;28;20058;-82
2021/12/04 08:23:50;;;;;;;119.40;107.90;;;5.30;99.50;;;;;;5014196;28;20062;-82
2021/12/04 08:26:18;;;;;;;120.40;108.85;;;5.30;99.50;;;;;;5013531;28;20129;-82
2021/12/04 08:28:46;;;;;;;119.65;108.10;;;5.30;99.50;;;;;;5021756;28;20077;-82
2021/12/04 08:31:13;;;;;;;126.75;114.00;;;5.30;99.50;;;;;;5024083;28;20081;-82
2021/12/04 08:33:42;;;;;;;121.35;109.60;;;5.30;99.50;;;;;;5033342;28;20554;-82
2021/12/04 08:36:10;;;;;;;120.22;108.63;;;5.30;99.50;;;;;;5033082;28;20165;-82
2021/12/04 08:38:46;;;;;;;127.55;115.38;;;5.30;99.50;;;;;;5060389;28;20105;-81
2021/12/04 08:41:20;;;;;;;121.07;109.18;;;5.40;99.60;;;;;;5025587;28;20169;-83
2021/12/04 08:43:47;;;;;;;120.63;108.93;;;5.40;99.60;;;;;;5027820;28;20050;-82
2021/12/04 08:46:19;;;;;;;120.78;109.07;;;5.40;99.60;;;;;;5031852;28;20065;-78
2021/12/04 08:48:49;;;;;;;122.15;110.30;;;5.40;99.60;;;;;;5066262;28;20077;-77
2021/12/04 08:51:21;;;;;;;119.88;108.22;;;5.30;99.60;;;;;;5034302;28;20093;-76
2021/12/04 08:53:48;;;;;;;121.97;110.10;;;5.40;99.60;;;;;;5033695;28;20930;-78
2021/12/04 08:56:15;;;;;;;121.05;109.15;;;5.40;99.60;;;;;;5032696;28;20052;-76
2021/12/04 08:58:42;;;;;;;120.80;108.90;;;5.40;99.60;;;;;;5034101;28;20049;-83
2021/12/04 09:01:13;;;;;;;122.15;110.35;;;5.40;99.60;;;;;;5029894;28;20133;-76
2021/12/04 09:03:43;;;;;;;121.68;109.68;;;5.40;99.60;;;;;;5030043;28;20062;-78
2021/12/04 09:06:13;;;;;;;122.30;110.30;;;5.40;99.60;;;;;;5033906;28;20133;-81
2021/12/04 09:08:40;;;;;;;125.28;113.03;;;5.40;99.60;;;;;;5032648;28;20480;-80
2021/12/04 09:11:12;;;;;;;122.20;110.15;;;5.40;99.60;;;;;;5032281;28;20104;-81
2021/12/04 09:13:40;;;;;;;122.50;110.32;;;5.40;99.60;;;;;;5032512;28;20506;-81
2021/12/04 09:16:09;;;;;;;123.28;111.03;;;5.40;99.60;;;;;;5032215;28;20054;-82
2021/12/04 09:18:36;;;;;;;124.57;112.28;;;5.40;99.60;;;;;;5015901;28;20139;-79
2021/12/04 09:21:04;;;;;;;122.55;110.18;;;5.40;99.70;;;;;;5033133;28;20559;-79
2021/12/04 09:23:36;;;;;;;123.55;111.35;;;5.40;99.70;;;;;;5032565;28;20064;-78
2021/12/04 09:26:04;;;;;;;123.75;111.57;;;5.40;99.70;;;;;;5032381;28;20073;-78
2021/12/04 09:28:42;;;;;;;124.43;112.05;;;5.40;99.70;;;;;;5032563;28;20085;-79
2021/12/04 09:31:23;;;;;;;122.75;110.43;;;5.40;99.70;;;;;;5066159;28;20053;-79
2021/12/04 09:36:58;;;;;;;123.78;111.40;;;5.40;99.70;;;;;;4999919;28;20050;-80
2021/12/04 10:04:41;;;;;;;125.40;112.82;;;5.50;99.80;;;;;;5019395;28;20140;-78
2021/12/04 10:18:41;;;;;;;122.18;109.72;;;5.50;99.80;;;;;;5034951;28;20077;-78
2021/12/04 10:21:29;;;;;;;124.03;111.32;;;5.60;99.80;;;;;;5034687;28;20504;-79
2021/12/04 10:32:37;;;;;;;124.93;112.43;;;5.60;99.80;;;;;;5034891;28;20104;-79
2021/12/04 10:35:09;;;;;;;124.72;112.20;;;5.60;99.80;;;;;;5034445;28;20132;-79
2021/12/04 10:37:47;;;;;;;123.18;110.68;;;5.60;99.80;;;;;;5034766;28;20462;-79
2021/12/04 10:40:16;;;;;;;124.93;112.40;;;5.60;99.80;;;;;;5034541;28;20137;-78
2021/12/04 10:42:49;;;;;;;125.47;112.63;;;5.60;99.80;;;;;;5033960;28;20050;-83
2021/12/04 10:45:18;;;;;;;126.03;113.22;;;5.60;99.80;;;;;;5017927;28;20060;-80
2021/12/04 10:47:54;;;;;;;124.40;111.88;;;5.60;99.80;;;;;;5049427;28;20053;-80
2021/12/04 10:50:29;;;;;;;123.50;110.85;;;5.70;99.80;;;;;;5034809;28;20056;-80
2021/12/04 10:52:58;;;;;;;127.55;114.53;;;5.70;99.80;;;;;;5033705;28;20050;-81
2021/12/04 10:55:31;;;;;;;126.32;113.28;;;5.70;99.80;;;;;;5035196;28;20151;-81
2021/12/04 11:01:04;;;;;;;128.13;114.90;;;5.70;99.90;;;;;;5015761;28;20354;-82
2021/12/04 11:03:38;;;;;;;126.75;113.45;;;5.70;99.90;;;;;;5017266;28;20046;-81
2021/12/04 11:20:35;;;;;;;128.75;115.07;;;5.70;99.80;;;;;;5034680;28;20128;-81
2021/12/04 11:26:13;;;;;;;126.63;113.47;;;5.80;99.80;;;;;;5020980;28;20499;-84
2021/12/04 11:29:02;;;;;;;130.15;116.45;;;5.80;99.80;;;;;;5049711;28;20058;-83
2021/12/04 11:37:20;;;;;;;128.82;115.32;;;5.80;99.80;;;;;;5033762;28;20100;-84
2021/12/04 11:40:12;;;;;;;128.10;114.57;;;5.80;99.80;;;;;;5034419;28;20558;-84
2021/12/04 11:42:41;;;;;;;127.80;114.38;;;5.80;99.90;;;;;;5033716;28;20053;-85
2021/12/04 11:45:16;;;;;;;126.75;113.32;;;5.80;99.80;;;;;;5018619;28;20056;-86
2021/12/04 11:47:45;;;;;;;129.32;115.63;;;5.80;99.80;;;;;;5018334;28;20046;-84
2021/12/04 11:50:29;;;;;;;130.90;117.10;;;5.80;99.80;;;;;;5049527;28;20085;-84
2021/12/04 11:53:01;;;;;;;132.50;118.38;;;5.80;99.80;;;;;;5038091;28;20199;-87
2021/12/04 11:55:32;;;;;;;131.23;116.80;;;5.80;99.80;;;;;;5024955;28;20054;-87
2021/12/04 11:58:02;;;;;;;131.65;117.78;;;5.80;99.70;;;;;;5015293;28;20058;-87
2021/12/04 12:00:33;;;;;;;132.50;118.30;;;5.80;99.70;;;;;;4998166;28;20074;-87
2021/12/04 12:03:10;;;;;;;131.48;117.15;;;5.80;99.70;;;;;;5016460;28;20065;-88
2021/12/04 12:05:50;;;;;;;133.82;119.18;;;5.80;99.80;;;;;;5016126;28;20058;-87
2021/12/04 12:25:25;;;;;;;140.27;121.47;;;5.80;99.80;;;;;;4929810;28;20556;-83
2021/12/04 12:31:41;;;;;;;135.55;120.65;;;5.80;99.80;;;;;;4921495;28;20541;-85
2021/12/04 12:36:45;;;;;;;137.32;122.07;;;5.80;99.80;;;;;;5031262;28;20053;-85
2021/12/04 12:40:12;;;;;;;;;;;;;;;;;;;;;
2021/12/04 12:42:57;;;;;;;142.82;124.25;;;5.80;99.80;;;;;;5042054;28;20046;-86
2021/12/04 12:45:29;;;;;;;146.27;129.27;;;5.80;99.80;;;;;;5028021;28;20061;-81
2021/12/04 12:48:00;;;;;;;142.25;123.10;;;5.80;99.80;;;;;;5046286;28;20059;-81
2021/12/04 12:50:31;;;;;;;144.60;125.05;;;5.80;99.90;;;;;;4996352;28;20089;-80
2021/12/04 12:53:04;;;;;;;137.93;122.85;;;5.80;99.90;;;;;;5029889;28;20137;-86
2021/12/04 12:55:34;;;;;;;136.27;121.55;;;5.80;99.90;;;;;;5048874;28;20808;-86
2021/12/04 12:58:20;;;;;;;134.38;119.60;;;5.80;99.90;;;;;;4997494;28;20054;-84
2021/12/04 13:11:57;;;;;;;137.88;122.75;;;5.90;99.90;;;;;;5013202;28;20046;-86
2021/12/04 13:14:28;;;;;;;142.13;122.70;;;5.90;99.90;;;;;;5030094;28;20105;-86
2021/12/04 13:17:02;;;;;;;140.93;125.60;;;5.90;99.90;;;;;;5030051;28;20050;-86
2021/12/04 13:19:31;;;;;;;145.95;125.47;;;5.90;99.90;;;;;;5013265;28;20054;-87
2021/12/04 13:22:03;;;;;;;141.75;125.72;;;5.90;99.90;;;;;;4996911;28;20142;-86
2021/12/04 13:24:33;;;;;;;148.35;125.82;;;5.90;99.90;;;;;;5013218;28;20061;-86
2021/12/04 13:29:39;;;;;;;144.43;124.25;;;5.90;99.90;;;;;;5016994;28;20045;-86
2021/12/04 13:32:11;;;;;;;144.50;125.88;;;5.90;99.80;;;;;;5033257;28;20064;-88
2021/12/04 13:34:46;;;;;;;142.13;125.00;;;5.90;99.80;;;;;;5017976;28;20112;-87
2021/12/04 13:37:14;;;;;;;148.48;125.80;;;5.90;99.80;;;;;;5017567;28;20129;-87
2021/12/04 13:39:44;;;;;;;144.50;126.03;;;5.90;99.80;;;;;;5033785;28;20094;-85
2021/12/04 13:42:12;;;;;;;151.10;128.05;;;5.90;99.80;;;;;;5033321;28;20144;-88
2021/12/04 13:44:40;;;;;;;145.95;127.40;;;5.90;99.80;;;;;;5017094;28;20081;-83
2021/12/04 13:47:09;;;;;;;147.05;126.90;;;5.90;99.80;;;;;;5033970;28;20050;-85
2021/12/04 13:53:30;;;;;;;149.77;128.63;;;5.90;99.80;;;;;;5007985;28;20050;-87
2021/12/04 13:56:01;;;;;;;148.25;127.43;;;5.80;99.80;;;;;;5048832;28;20859;-89
2021/12/04 13:58:45;;;;;;;145.18;126.93;;;5.80;99.80;;;;;;5035044;28;20058;-88
2021/12/04 14:01:16;;;;;;;145.35;125.88;;;5.90;99.80;;;;;;5014808;28;20099;-90
2021/12/04 14:03:47;;;;;;;145.90;128.95;;;5.90;99.80;;;;;;5016678;28;20047;-90
2021/12/04 14:06:19;;;;;;;147.27;127.20;;;5.80;99.70;;;;;;5035166;28;20061;-89
2021/12/04 14:08:57;;;;;;;145.40;128.15;;;5.90;99.80;;;;;;5033633;28;20046;-86
2021/12/04 14:11:30;;;;;;;150.25;131.20;;;5.90;99.80;;;;;;5031781;28;20100;-84
2021/12/04 14:13:57;;;;;;;146.18;129.18;;;5.90;99.80;;;;;;5033129;28;20408;-85
2021/12/04 14:16:29;;;;;;;147.85;129.15;;;5.90;99.80;;;;;;5032295;28;20057;-85
2021/12/04 14:18:56;;;;;;;146.55;128.68;;;5.90;99.80;;;;;;5015310;28;20566;-84
2021/12/04 14:21:25;;;;;;;148.27;129.73;;;5.90;99.80;;;;;;5048760;28;20061;-86
2021/12/04 14:23:52;;;;;;;147.07;128.75;;;5.90;99.80;;;;;;5048686;28;20046;-85
2021/12/04 14:26:23;;;;;;;146.40;129.27;;;5.90;99.80;;;;;;5031350;28;20068;-86
2021/12/04 14:28:50;;;;;;;144.95;129.13;;;5.90;99.80;;;;;;5032154;28;20084;-85
2021/12/04 14:31:22;;;;;;;149.80;128.48;;;5.90;99.80;;;;;;5031295;28;20045;-84
2021/12/04 14:33:50;;;;;;;152.13;131.65;;;5.90;99.80;;;;;;5031731;28;20116;-84
2021/12/04 14:36:19;;;;;;;150.07;131.15;;;5.90;99.80;;;;;;5014916;28;20803;-83
2021/12/04 14:38:47;;;;;;;147.05;130.77;;;6.00;99.80;;;;;;5034676;28;20042;-84
2021/12/04 14:41:15;;;;;;;145.52;129.60;;;6.00;99.80;;;;;;5034764;28;20046;-84
2021/12/04 14:43:43;;;;;;;146.05;129.30;;;6.00;99.80;;;;;;5018405;28;20584;-84
2021/12/04 14:46:12;;;;;;;146.20;127.32;;;6.00;99.80;;;;;;5017880;28;20073;-83
2021/12/04 14:48:43;;;;;;;144.90;129.13;;;6.00;99.80;;;;;;5018500;28;20558;-84
2021/12/04 14:51:14;;;;;;;146.00;130.05;;;6.00;99.80;;;;;;5018054;28;20132;-83
2021/12/04 14:53:47;;;;;;;142.10;126.82;;;6.00;99.80;;;;;;5036305;28;20058;-88
2021/12/04 14:56:15;;;;;;;143.90;128.02;;;6.00;99.80;;;;;;5020023;28;20054;-87
2021/12/04 14:58:45;;;;;;;144.73;129.02;;;6.00;99.80;;;;;;5037155;28;20101;-89
2021/12/04 15:01:15;;;;;;;144.48;129.07;;;6.00;99.80;;;;;;5020034;28;20085;-84
2021/12/04 15:03:45;;;;;;;147.20;129.68;;;6.00;99.80;;;;;;5034452;28;20049;-79
2021/12/04 15:06:17;;;;;;;147.40;131.57;;;6.00;99.80;;;;;;5032777;28;20054;-80
2021/12/04 15:08:46;;;;;;;146.60;130.32;;;6.00;99.80;;;;;;5016347;28;20140;-75
2021/12/04 15:11:16;;;;;;;147.88;131.02;;;6.10;99.80;;;;;;5031783;28;20046;-78
2021/12/04 15:13:52;;;;;;;146.40;130.48;;;6.00;99.80;;;;;;5032670;28;20812;-77
2021/12/04 15:16:29;;;;;;;145.10;129.07;;;6.10;99.80;;;;;;5034579;28;20050;-77
2021/12/04 15:19:09;;;;;;;147.85;131.73;;;6.10;99.80;;;;;;5032531;28;20058;-76
2021/12/04 15:21:40;;;;;;;148.80;131.15;;;6.10;99.80;;;;;;5032369;28;20058;-76
2021/12/04 15:24:13;;;;;;;146.90;129.65;;;6.10;99.80;;;;;;5031804;28;20662;-76
2021/12/04 15:31:06;;;;;;;152.88;131.52;;;6.10;99.80;;;;;;5082644;22;20070;-79